FWG15P HECA-LCLK
Flight info
| Callsign | FWG15P |
|---|---|
| Flight time | 0h 58m |
| Altitude | 24000 |
| Route | CVO A16 DEGDI/N0459F350 DCT SENTO/N0458F360 Q777 IMPIP N307 LAKTO N71 STEPA/N0456F370 DCT ODELO DCT EMEDA |
| Aircraft | A20N/M-SDE2E3FGHIRWXY/LB1 |
Departure
| Time | 2026-05-06 16:34 |
|---|---|
| Airport | Cairo International Airport (HECA) |
Arrival
| Time | 2026-05-06 17:32 |
|---|---|
| Airport | Larnaca International Airport (LCLK) |
| Time | Latitude | Longitude | Altitude | Speed | Heading |
|---|---|---|---|---|---|
| 2026-05-06 16:09 | 30.10745 | 31.39694 | 386 ft | 0 kts | 255° |
| 2026-05-06 16:26 | 30.10746 | 31.39699 | 386 ft | 2 kts | 250° |
| 2026-05-06 16:26 | 30.10751 | 31.39715 | 386 ft | 2 kts | 256° |
| 2026-05-06 16:26 | 30.10754 | 31.39732 | 386 ft | 2 kts | 254° |
| 2026-05-06 16:26 | 30.10758 | 31.39748 | 386 ft | 2 kts | 255° |
| 2026-05-06 16:27 | 30.10762 | 31.39765 | 386 ft | 2 kts | 254° |
| 2026-05-06 16:27 | 30.10765 | 31.39779 | 386 ft | 1 kts | 256° |
| 2026-05-06 16:27 | 30.10769 | 31.39786 | 386 ft | 1 kts | 192° |
| 2026-05-06 16:27 | 30.10779 | 31.39784 | 386 ft | 2 kts | 152° |
| 2026-05-06 16:28 | 30.10793 | 31.39779 | 386 ft | 2 kts | 168° |
| 2026-05-06 16:28 | 30.10807 | 31.39774 | 386 ft | 2 kts | 163° |
| 2026-05-06 16:28 | 30.10817 | 31.39771 | 386 ft | 0 kts | 165° |
| 2026-05-06 16:30 | 30.10785 | 31.39781 | 386 ft | 10 kts | 165° |
| 2026-05-06 16:30 | 30.10705 | 31.39805 | 386 ft | 12 kts | 165° |
| 2026-05-06 16:31 | 30.10617 | 31.39832 | 385 ft | 13 kts | 165° |
| 2026-05-06 16:31 | 30.10522 | 31.39860 | 386 ft | 14 kts | 165° |
| 2026-05-06 16:31 | 30.10424 | 31.39868 | 386 ft | 14 kts | 208° |
| 2026-05-06 16:31 | 30.10351 | 31.39778 | 386 ft | 16 kts | 229° |
| 2026-05-06 16:32 | 30.10274 | 31.39677 | 386 ft | 17 kts | 229° |
| 2026-05-06 16:32 | 30.10192 | 31.39579 | 386 ft | 16 kts | 209° |
| 2026-05-06 16:32 | 30.10092 | 31.39626 | 386 ft | 16 kts | 139° |
| 2026-05-06 16:32 | 30.10043 | 31.39677 | 385 ft | 0 kts | 133° |
| 2026-05-06 16:33 | 30.10027 | 31.39698 | 386 ft | 11 kts | 126° |
| 2026-05-06 16:33 | 30.10004 | 31.39796 | 387 ft | 15 kts | 86° |
| 2026-05-06 16:33 | 30.10041 | 31.39916 | 387 ft | 16 kts | 49° |
| 2026-05-06 16:34 | 30.10640 | 31.40710 | 387 ft | 134 kts | 49° |
| 2026-05-06 16:34 | 30.11351 | 31.41684 | 614 ft | 169 kts | 47° |
| 2026-05-06 16:34 | 30.12087 | 31.42728 | 1370 ft | 168 kts | 45° |
| 2026-05-06 16:34 | 30.12874 | 31.43622 | 2255 ft | 156 kts | 22° |
| 2026-05-06 16:35 | 30.13921 | 31.43660 | 2854 ft | 164 kts | 345° |
| 2026-05-06 16:35 | 30.15021 | 31.43107 | 3366 ft | 179 kts | 333° |
| 2026-05-06 16:35 | 30.16103 | 31.42311 | 3987 ft | 188 kts | 326° |
| 2026-05-06 16:35 | 30.17257 | 31.41530 | 4489 ft | 201 kts | 341° |
| 2026-05-06 16:36 | 30.18682 | 31.41096 | 4925 ft | 221 kts | 348° |
| 2026-05-06 16:36 | 30.20265 | 31.40681 | 5361 ft | 243 kts | 347° |
| 2026-05-06 16:36 | 30.21964 | 31.40198 | 5932 ft | 260 kts | 346° |
| 2026-05-06 16:36 | 30.23731 | 31.39655 | 6722 ft | 267 kts | 345° |
| 2026-05-06 16:37 | 30.25520 | 31.39081 | 7566 ft | 270 kts | 344° |
| 2026-05-06 16:37 | 30.27339 | 31.38483 | 8396 ft | 274 kts | 343° |
| 2026-05-06 16:37 | 30.29179 | 31.37870 | 9208 ft | 279 kts | 343° |
| 2026-05-06 16:37 | 30.31046 | 31.37242 | 10012 ft | 282 kts | 342° |
| 2026-05-06 16:38 | 30.32947 | 31.36600 | 10704 ft | 290 kts | 342° |
| 2026-05-06 16:38 | 30.34942 | 31.35922 | 11106 ft | 308 kts | 342° |
| 2026-05-06 16:38 | 30.37056 | 31.35203 | 11465 ft | 326 kts | 342° |
| 2026-05-06 16:38 | 30.39291 | 31.34443 | 11784 ft | 344 kts | 342° |
| 2026-05-06 16:39 | 30.41649 | 31.33642 | 12097 ft | 361 kts | 342° |
| 2026-05-06 16:39 | 30.44117 | 31.32804 | 12424 ft | 376 kts | 342° |
| 2026-05-06 16:39 | 30.46684 | 31.32050 | 12985 ft | 383 kts | 346° |
| 2026-05-06 16:39 | 30.49317 | 31.31479 | 13662 ft | 387 kts | 348° |
| 2026-05-06 16:40 | 30.51979 | 31.30983 | 14301 ft | 390 kts | 348° |
| 2026-05-06 16:40 | 30.54673 | 31.30490 | 14914 ft | 394 kts | 348° |
| 2026-05-06 16:40 | 30.57396 | 31.29993 | 15533 ft | 398 kts | 348° |
| 2026-05-06 16:40 | 30.60137 | 31.29492 | 16146 ft | 401 kts | 348° |
| 2026-05-06 16:41 | 30.62904 | 31.28985 | 16732 ft | 404 kts | 348° |
| 2026-05-06 16:41 | 30.65693 | 31.28471 | 17316 ft | 407 kts | 348° |
| 2026-05-06 16:41 | 30.68504 | 31.27953 | 17873 ft | 411 kts | 348° |
| 2026-05-06 16:41 | 30.71331 | 31.27432 | 18434 ft | 413 kts | 348° |
| 2026-05-06 16:42 | 30.74182 | 31.26906 | 18959 ft | 417 kts | 348° |
| 2026-05-06 16:42 | 30.77055 | 31.26374 | 19461 ft | 420 kts | 348° |
| 2026-05-06 16:42 | 30.79952 | 31.25838 | 19958 ft | 424 kts | 348° |
| 2026-05-06 16:42 | 30.82880 | 31.25296 | 20458 ft | 427 kts | 348° |
| 2026-05-06 16:43 | 30.85820 | 31.24752 | 20947 ft | 430 kts | 348° |
| 2026-05-06 16:43 | 30.88785 | 31.24204 | 21433 ft | 433 kts | 347° |
| 2026-05-06 16:43 | 30.91771 | 31.23651 | 21916 ft | 436 kts | 348° |
| 2026-05-06 16:43 | 30.94777 | 31.23093 | 22341 ft | 440 kts | 347° |
| 2026-05-06 16:44 | 30.97808 | 31.22529 | 22779 ft | 443 kts | 348° |
| 2026-05-06 16:44 | 31.00859 | 31.21964 | 23372 ft | 442 kts | 348° |
| 2026-05-06 16:44 | 31.03889 | 31.21404 | 24024 ft | 440 kts | 347° |
| 2026-05-06 16:44 | 31.06900 | 31.20846 | 24667 ft | 438 kts | 347° |
| 2026-05-06 16:45 | 31.09898 | 31.20289 | 25298 ft | 436 kts | 347° |
| 2026-05-06 16:45 | 31.12882 | 31.19733 | 25896 ft | 434 kts | 347° |
| 2026-05-06 16:45 | 31.15859 | 31.19178 | 26495 ft | 432 kts | 347° |
| 2026-05-06 16:45 | 31.18816 | 31.18628 | 27097 ft | 430 kts | 347° |
| 2026-05-06 16:46 | 31.21795 | 31.18270 | 27650 ft | 433 kts | 356° |
| 2026-05-06 16:46 | 31.24811 | 31.18630 | 28160 ft | 438 kts | 8° |
| 2026-05-06 16:46 | 31.27720 | 31.19722 | 28650 ft | 443 kts | 20° |
| 2026-05-06 16:46 | 31.30492 | 31.21305 | 29158 ft | 443 kts | 23° |
| 2026-05-06 16:47 | 31.33221 | 31.22967 | 29643 ft | 442 kts | 24° |
| 2026-05-06 16:47 | 31.35937 | 31.24635 | 30113 ft | 441 kts | 24° |
| 2026-05-06 16:47 | 31.38658 | 31.26295 | 30563 ft | 439 kts | 23° |
| 2026-05-06 16:47 | 31.41366 | 31.27936 | 30981 ft | 438 kts | 23° |
| 2026-05-06 16:48 | 31.44077 | 31.29568 | 31403 ft | 437 kts | 22° |
| 2026-05-06 16:48 | 31.46768 | 31.31186 | 31810 ft | 436 kts | 22° |
| 2026-05-06 16:48 | 31.49497 | 31.32711 | 32180 ft | 432 kts | 18° |
| 2026-05-06 16:48 | 31.52302 | 31.33925 | 32545 ft | 428 kts | 12° |
| 2026-05-06 16:49 | 31.55168 | 31.34819 | 32911 ft | 424 kts | 7° |
| 2026-05-06 16:49 | 31.58055 | 31.35387 | 33268 ft | 420 kts | 1° |
| 2026-05-06 16:49 | 31.60974 | 31.35640 | 33627 ft | 415 kts | 356° |
| 2026-05-06 16:49 | 31.63845 | 31.35579 | 33977 ft | 411 kts | 351° |
| 2026-05-06 16:50 | 31.66700 | 31.35315 | 34279 ft | 409 kts | 350° |
| 2026-05-06 16:50 | 31.69538 | 31.35013 | 34554 ft | 408 kts | 350° |
| 2026-05-06 16:50 | 31.72359 | 31.34709 | 34809 ft | 408 kts | 349° |
| 2026-05-06 16:50 | 31.75191 | 31.34406 | 35052 ft | 408 kts | 349° |
| 2026-05-06 16:51 | 31.78014 | 31.34107 | 35276 ft | 408 kts | 349° |
| 2026-05-06 16:51 | 31.80852 | 31.33809 | 35476 ft | 409 kts | 349° |
| 2026-05-06 16:51 | 31.83691 | 31.33513 | 35652 ft | 410 kts | 349° |
| 2026-05-06 16:51 | 31.86536 | 31.33216 | 35828 ft | 411 kts | 349° |
| 2026-05-06 16:52 | 31.89390 | 31.32915 | 36007 ft | 412 kts | 349° |
| 2026-05-06 16:52 | 31.92256 | 31.32611 | 36219 ft | 413 kts | 349° |
| 2026-05-06 16:52 | 31.95123 | 31.32308 | 36406 ft | 415 kts | 349° |
| 2026-05-06 16:52 | 31.98000 | 31.32003 | 36579 ft | 416 kts | 349° |
| 2026-05-06 16:53 | 32.00893 | 31.31697 | 36748 ft | 418 kts | 349° |
| 2026-05-06 16:53 | 32.03790 | 31.31390 | 36921 ft | 419 kts | 349° |
| 2026-05-06 16:53 | 32.06697 | 31.31113 | 37076 ft | 422 kts | 353° |
| 2026-05-06 16:54 | 32.12597 | 31.31897 | 37080 ft | 435 kts | 11° |
| 2026-05-06 16:54 | 32.18180 | 31.34814 | 37086 ft | 445 kts | 28° |
| 2026-05-06 16:55 | 32.22879 | 31.39585 | 37078 ft | 450 kts | 45° |
| 2026-05-06 16:55 | 32.26610 | 31.45641 | 37079 ft | 448 kts | 51° |
| 2026-05-06 16:56 | 32.30135 | 31.51707 | 37086 ft | 446 kts | 51° |
| 2026-05-06 16:56 | 32.33672 | 31.57736 | 37085 ft | 446 kts | 51° |
| 2026-05-06 16:57 | 32.37238 | 31.63785 | 37084 ft | 446 kts | 51° |
| 2026-05-06 16:57 | 32.40817 | 31.69859 | 37085 ft | 447 kts | 51° |
| 2026-05-06 16:58 | 32.44376 | 31.75906 | 37089 ft | 447 kts | 51° |
| 2026-05-06 16:58 | 32.47932 | 31.81957 | 37085 ft | 447 kts | 51° |
| 2026-05-06 16:59 | 32.51483 | 31.88010 | 37080 ft | 448 kts | 51° |
| 2026-05-06 16:59 | 32.55054 | 31.94109 | 37081 ft | 448 kts | 51° |
| 2026-05-06 17:00 | 32.58627 | 32.00225 | 37078 ft | 448 kts | 51° |
| 2026-05-06 17:00 | 32.62194 | 32.06338 | 37079 ft | 448 kts | 51° |
| 2026-05-06 17:01 | 32.65759 | 32.12432 | 37079 ft | 448 kts | 51° |
| 2026-05-06 17:01 | 32.69348 | 32.18557 | 37088 ft | 448 kts | 51° |
| 2026-05-06 17:02 | 32.72902 | 32.24642 | 37089 ft | 448 kts | 51° |
| 2026-05-06 17:02 | 32.76505 | 32.30830 | 37085 ft | 449 kts | 51° |
| 2026-05-06 17:03 | 32.80107 | 32.36931 | 37082 ft | 448 kts | 48° |
| 2026-05-06 17:03 | 32.84135 | 32.42533 | 37087 ft | 443 kts | 40° |
| 2026-05-06 17:04 | 32.88575 | 32.47682 | 37087 ft | 443 kts | 38° |
| 2026-05-06 17:04 | 32.93027 | 32.52778 | 37095 ft | 443 kts | 38° |
| 2026-05-06 17:05 | 32.97468 | 32.57892 | 37090 ft | 442 kts | 38° |
| 2026-05-06 17:05 | 33.01916 | 32.63033 | 37090 ft | 443 kts | 38° |
| 2026-05-06 17:06 | 33.06343 | 32.68155 | 37089 ft | 443 kts | 39° |
| 2026-05-06 17:06 | 33.10767 | 32.73287 | 37091 ft | 443 kts | 39° |
| 2026-05-06 17:07 | 33.15182 | 32.78416 | 37084 ft | 443 kts | 39° |
| 2026-05-06 17:07 | 33.19611 | 32.83566 | 37086 ft | 444 kts | 39° |
| 2026-05-06 17:08 | 33.24025 | 32.88709 | 37084 ft | 445 kts | 39° |
| 2026-05-06 17:08 | 33.28467 | 32.93891 | 36439 ft | 450 kts | 38° |
| 2026-05-06 17:08 | 33.30699 | 32.96500 | 35797 ft | 452 kts | 38° |
| 2026-05-06 17:09 | 33.32942 | 32.99124 | 35244 ft | 453 kts | 38° |
| 2026-05-06 17:09 | 33.35196 | 33.01763 | 34660 ft | 455 kts | 38° |
| 2026-05-06 17:09 | 33.37455 | 33.04407 | 34061 ft | 457 kts | 38° |
| 2026-05-06 17:09 | 33.39720 | 33.07061 | 33350 ft | 458 kts | 38° |
| 2026-05-06 17:10 | 33.41992 | 33.09722 | 32687 ft | 457 kts | 38° |
| 2026-05-06 17:10 | 33.44253 | 33.12375 | 32051 ft | 457 kts | 38° |
| 2026-05-06 17:10 | 33.46513 | 33.15028 | 31409 ft | 457 kts | 38° |
| 2026-05-06 17:10 | 33.48772 | 33.17685 | 30764 ft | 456 kts | 38° |
| 2026-05-06 17:11 | 33.51027 | 33.20339 | 30115 ft | 456 kts | 38° |
| 2026-05-06 17:11 | 33.53282 | 33.22996 | 29449 ft | 456 kts | 38° |
| 2026-05-06 17:11 | 33.55541 | 33.25656 | 28792 ft | 456 kts | 38° |
| 2026-05-06 17:11 | 33.57795 | 33.28314 | 28105 ft | 456 kts | 38° |
| 2026-05-06 17:12 | 33.60052 | 33.30979 | 27417 ft | 457 kts | 38° |
| 2026-05-06 17:12 | 33.62315 | 33.33650 | 26697 ft | 458 kts | 38° |
| 2026-05-06 17:12 | 33.64659 | 33.36205 | 25953 ft | 454 kts | 32° |
| 2026-05-06 17:12 | 33.67215 | 33.38364 | 25227 ft | 448 kts | 25° |
| 2026-05-06 17:13 | 33.69942 | 33.40102 | 24494 ft | 443 kts | 18° |
| 2026-05-06 17:13 | 33.72762 | 33.41578 | 23720 ft | 443 kts | 17° |
| 2026-05-06 17:13 | 33.75598 | 33.43004 | 22908 ft | 444 kts | 17° |
| 2026-05-06 17:13 | 33.78450 | 33.44432 | 22089 ft | 446 kts | 17° |
| 2026-05-06 17:14 | 33.81305 | 33.45869 | 21257 ft | 448 kts | 17° |
| 2026-05-06 17:14 | 33.84172 | 33.47322 | 20407 ft | 448 kts | 18° |
| 2026-05-06 17:14 | 33.87043 | 33.48784 | 19538 ft | 449 kts | 18° |
| 2026-05-06 17:14 | 33.89918 | 33.50253 | 18632 ft | 451 kts | 18° |
| 2026-05-06 17:15 | 33.92786 | 33.51720 | 17903 ft | 447 kts | 18° |
| 2026-05-06 17:15 | 33.95617 | 33.53173 | 17309 ft | 440 kts | 18° |
| 2026-05-06 17:15 | 33.98415 | 33.54608 | 16702 ft | 434 kts | 19° |
| 2026-05-06 17:15 | 34.01176 | 33.56025 | 16101 ft | 429 kts | 19° |
| 2026-05-06 17:16 | 34.03904 | 33.57426 | 15492 ft | 424 kts | 19° |
| 2026-05-06 17:16 | 34.06603 | 33.58813 | 14876 ft | 420 kts | 19° |
| 2026-05-06 17:16 | 34.09270 | 33.60185 | 14266 ft | 415 kts | 20° |
| 2026-05-06 17:16 | 34.11914 | 33.61545 | 13661 ft | 411 kts | 20° |
| 2026-05-06 17:17 | 34.14531 | 33.62893 | 13062 ft | 406 kts | 20° |
| 2026-05-06 17:17 | 34.17112 | 33.64223 | 12487 ft | 401 kts | 20° |
| 2026-05-06 17:17 | 34.19657 | 33.65537 | 12085 ft | 391 kts | 21° |
| 2026-05-06 17:17 | 34.22118 | 33.66810 | 11784 ft | 378 kts | 21° |
| 2026-05-06 17:18 | 34.24498 | 33.68042 | 11539 ft | 365 kts | 21° |
| 2026-05-06 17:18 | 34.26748 | 33.69209 | 11302 ft | 339 kts | 21° |
| 2026-05-06 17:18 | 34.28829 | 33.70288 | 11080 ft | 313 kts | 21° |
| 2026-05-06 17:18 | 34.30750 | 33.71285 | 10889 ft | 289 kts | 21° |
| 2026-05-06 17:19 | 34.32579 | 33.72232 | 10726 ft | 281 kts | 21° |
| 2026-05-06 17:19 | 34.34370 | 33.73158 | 10571 ft | 277 kts | 21° |
| 2026-05-06 17:19 | 34.36130 | 33.74068 | 10433 ft | 273 kts | 21° |
| 2026-05-06 17:19 | 34.37867 | 33.74969 | 10306 ft | 269 kts | 21° |
| 2026-05-06 17:20 | 34.39582 | 33.75859 | 10184 ft | 266 kts | 21° |
| 2026-05-06 17:20 | 34.41272 | 33.76736 | 10025 ft | 264 kts | 22° |
| 2026-05-06 17:20 | 34.42966 | 33.77614 | 9687 ft | 265 kts | 22° |
| 2026-05-06 17:20 | 34.44659 | 33.78492 | 9364 ft | 265 kts | 22° |
| 2026-05-06 17:21 | 34.46353 | 33.79371 | 9042 ft | 265 kts | 22° |
| 2026-05-06 17:21 | 34.48103 | 33.80031 | 8702 ft | 263 kts | 8° |
| 2026-05-06 17:21 | 34.49928 | 33.80121 | 8370 ft | 262 kts | 355° |
| 2026-05-06 17:21 | 34.51740 | 33.79906 | 8040 ft | 262 kts | 354° |
| 2026-05-06 17:22 | 34.53548 | 33.79656 | 7712 ft | 261 kts | 354° |
| 2026-05-06 17:22 | 34.55352 | 33.79405 | 7391 ft | 260 kts | 354° |
| 2026-05-06 17:22 | 34.57148 | 33.79160 | 7069 ft | 259 kts | 354° |
| 2026-05-06 17:22 | 34.58933 | 33.78919 | 6757 ft | 258 kts | 354° |
| 2026-05-06 17:23 | 34.60715 | 33.78682 | 6444 ft | 256 kts | 354° |
| 2026-05-06 17:23 | 34.62488 | 33.78448 | 6130 ft | 255 kts | 354° |
| 2026-05-06 17:23 | 34.64252 | 33.78216 | 5810 ft | 254 kts | 354° |
| 2026-05-06 17:23 | 34.66011 | 33.77984 | 5508 ft | 253 kts | 354° |
| 2026-05-06 17:24 | 34.67760 | 33.77754 | 5194 ft | 252 kts | 354° |
| 2026-05-06 17:24 | 34.69502 | 33.77525 | 4887 ft | 251 kts | 354° |
| 2026-05-06 17:24 | 34.71237 | 33.77297 | 4580 ft | 250 kts | 354° |
| 2026-05-06 17:24 | 34.72971 | 33.77069 | 4272 ft | 250 kts | 354° |
| 2026-05-06 17:25 | 34.74695 | 33.76842 | 3965 ft | 249 kts | 354° |
| 2026-05-06 17:25 | 34.76422 | 33.76615 | 3659 ft | 249 kts | 354° |
| 2026-05-06 17:25 | 34.78146 | 33.76389 | 3349 ft | 248 kts | 354° |
| 2026-05-06 17:25 | 34.79838 | 33.76165 | 3243 ft | 238 kts | 354° |
| 2026-05-06 17:26 | 34.81440 | 33.75952 | 3221 ft | 224 kts | 354° |
| 2026-05-06 17:26 | 34.82970 | 33.75749 | 3189 ft | 214 kts | 355° |
| 2026-05-06 17:26 | 34.84415 | 33.75558 | 3154 ft | 204 kts | 355° |
| 2026-05-06 17:26 | 34.85781 | 33.75378 | 3125 ft | 190 kts | 355° |
| 2026-05-06 17:27 | 34.87063 | 33.75209 | 2990 ft | 178 kts | 355° |
| 2026-05-06 17:27 | 34.88262 | 33.75051 | 2838 ft | 167 kts | 355° |
| 2026-05-06 17:27 | 34.89371 | 33.74904 | 2686 ft | 155 kts | 355° |
| 2026-05-06 17:27 | 34.90429 | 33.74765 | 2427 ft | 148 kts | 355° |
| 2026-05-06 17:28 | 34.91427 | 33.74632 | 2241 ft | 142 kts | 355° |
| 2026-05-06 17:28 | 34.92418 | 33.74502 | 2078 ft | 142 kts | 355° |
| 2026-05-06 17:28 | 34.93403 | 33.74373 | 1909 ft | 142 kts | 355° |
| 2026-05-06 17:28 | 34.94388 | 33.74242 | 1736 ft | 142 kts | 354° |
| 2026-05-06 17:29 | 34.95287 | 33.73798 | 1528 ft | 143 kts | 306° |
| 2026-05-06 17:29 | 34.95412 | 33.72661 | 1517 ft | 142 kts | 247° |
| 2026-05-06 17:29 | 34.94883 | 33.71649 | 1527 ft | 142 kts | 229° |
| 2026-05-06 17:29 | 34.94221 | 33.70760 | 1505 ft | 141 kts | 225° |
| 2026-05-06 17:30 | 34.93533 | 33.69911 | 1353 ft | 140 kts | 224° |
| 2026-05-06 17:30 | 34.92846 | 33.69076 | 1187 ft | 138 kts | 224° |
| 2026-05-06 17:30 | 34.92165 | 33.68248 | 1023 ft | 137 kts | 225° |
| 2026-05-06 17:30 | 34.91487 | 33.67421 | 859 ft | 137 kts | 224° |
| 2026-05-06 17:31 | 34.90810 | 33.66597 | 687 ft | 136 kts | 224° |
| 2026-05-06 17:31 | 34.90138 | 33.65783 | 523 ft | 135 kts | 224° |
| 2026-05-06 17:31 | 34.89463 | 33.64976 | 362 ft | 134 kts | 225° |
| 2026-05-06 17:31 | 34.88804 | 33.64154 | 201 ft | 134 kts | 225° |
| 2026-05-06 17:32 | 34.88148 | 33.63345 | 40 ft | 132 kts | 225° |
| 2026-05-06 17:32 | 34.87561 | 33.62623 | 16 ft | 96 kts | 226° |
| 2026-05-06 17:32 | 34.87205 | 33.62186 | 16 ft | 50 kts | 225° |
| 2026-05-06 17:32 | 34.87033 | 33.61960 | 16 ft | 28 kts | 236° |
| 2026-05-06 17:33 | 34.86969 | 33.61783 | 16 ft | 12 kts | 256° |
| 2026-05-06 17:33 | 34.86964 | 33.61759 | 16 ft | 0 kts | 255° |
| 2026-05-06 17:33 | 34.86964 | 33.61758 | 16 ft | 0 kts | 255° |
| 2026-05-06 17:33 | 34.86962 | 33.61747 | 16 ft | 3 kts | 255° |
| 2026-05-06 17:34 | 34.86947 | 33.61686 | 16 ft | 9 kts | 253° |
| 2026-05-06 17:34 | 34.86929 | 33.61603 | 16 ft | 10 kts | 255° |
| 2026-05-06 17:34 | 34.86907 | 33.61506 | 16 ft | 12 kts | 255° |
| 2026-05-06 17:34 | 34.86882 | 33.61403 | 16 ft | 12 kts | 276° |
| 2026-05-06 17:35 | 34.86888 | 33.61301 | 16 ft | 13 kts | 236° |
| 2026-05-06 17:35 | 34.86823 | 33.61218 | 16 ft | 14 kts | 225° |
| 2026-05-06 17:35 | 34.86752 | 33.61131 | 16 ft | 14 kts | 225° |
| 2026-05-06 17:36 | 34.86707 | 33.60999 | 16 ft | 10 kts | 309° |
| 2026-05-06 17:36 | 34.86759 | 33.60936 | 16 ft | 9 kts | 326° |
| 2026-05-06 17:36 | 34.86801 | 33.60953 | 16 ft | 2 kts | 38° |
| 2026-05-06 17:36 | 34.86826 | 33.60984 | 16 ft | 4 kts | 47° |
| 2026-05-06 17:37 | 34.86834 | 33.60995 | 16 ft | 0 kts | 46° |